createdAt,value
2023-03-13T00:03:12.125Z,54.60
2023-03-13T00:08:15.630Z,53.90
2023-03-13T00:13:19.168Z,53.80
2023-03-13T00:18:23.875Z,54.60
2023-03-13T00:23:27.264Z,54.00
2023-03-13T00:28:32.717Z,54.00
2023-03-13T00:33:39.130Z,54.00
2023-03-13T00:38:43.076Z,54.20
2023-03-13T00:43:47.609Z,54.20
2023-03-13T00:48:52.636Z,54.20
2023-03-13T00:53:56.718Z,54.40
2023-03-13T00:59:02.488Z,54.30
2023-03-13T01:04:09.356Z,54.40
2023-03-13T01:09:15.371Z,54.50
2023-03-13T01:14:20.829Z,54.50
2023-03-13T01:19:25.546Z,54.40
2023-03-13T01:24:29.070Z,54.50
2023-03-13T01:29:32.515Z,54.50
2023-03-13T01:34:37.324Z,54.50
2023-03-13T01:39:40.632Z,54.70
2023-03-13T01:44:56.135Z,54.60
2023-03-13T01:50:03.647Z,55.20
2023-03-13T01:55:35.626Z,54.70
2023-03-13T02:00:40.064Z,54.70
2023-03-13T02:05:49.798Z,54.70
2023-03-13T02:10:59.601Z,54.80
2023-03-13T02:16:03.749Z,54.80
2023-03-13T02:21:21.162Z,54.70
2023-03-13T02:26:26.057Z,55.10
2023-03-13T02:31:30.841Z,54.70
2023-03-13T02:36:35.085Z,54.90
2023-03-13T02:41:41.599Z,54.80
2023-03-13T02:46:47.589Z,55.00
2023-03-13T02:51:54.008Z,54.90
2023-03-13T02:57:02.134Z,54.90
2023-03-13T03:02:06.036Z,55.20
2023-03-13T03:07:09.463Z,55.00
2023-03-13T03:12:14.349Z,55.10
2023-03-13T03:17:17.773Z,55.20
2023-03-13T03:22:21.254Z,55.10
2023-03-13T03:27:26.062Z,55.10
2023-03-13T03:32:31.136Z,55.30
2023-03-13T03:37:35.123Z,55.20
2023-03-13T03:42:41.300Z,55.30
2023-03-13T03:47:45.151Z,55.50
2023-03-13T03:52:48.632Z,55.50
2023-03-13T03:57:53.626Z,55.50
2023-03-13T04:03:16.124Z,55.80
2023-03-13T04:08:20.284Z,55.60
2023-03-13T04:13:25.251Z,55.70
2023-03-13T04:18:28.959Z,55.90
2023-03-13T04:23:32.409Z,55.90
2023-03-13T04:28:37.324Z,56.00
2023-03-13T04:33:43.556Z,56.20
2023-03-13T04:39:07.407Z,56.20
2023-03-13T04:44:35.399Z,56.30
2023-03-13T04:49:54.074Z,56.50
2023-03-13T04:55:17.888Z,56.40
2023-03-13T05:00:41.342Z,56.50
2023-03-13T05:06:06.860Z,56.80
2023-03-13T05:11:19.186Z,56.50
2023-03-13T05:16:42.280Z,56.50
2023-03-13T05:22:06.173Z,56.60
2023-03-13T05:27:12.163Z,56.50
2023-03-13T05:32:28.636Z,56.60
2023-03-13T05:37:34.890Z,56.70
2023-03-13T05:42:59.484Z,56.60
2023-03-13T05:48:21.480Z,56.60
2023-03-13T05:53:43.577Z,56.70
2023-03-13T05:59:16.087Z,57.10
2023-03-13T06:04:37.188Z,57.00
2023-03-13T06:09:41.054Z,57.00
2023-03-13T06:14:45.788Z,57.00
2023-03-13T06:19:50.520Z,57.00
2023-03-13T06:24:53.825Z,57.30
2023-03-13T06:29:58.216Z,57.20
2023-03-13T06:35:02.902Z,57.30
2023-03-13T06:40:07.798Z,57.40
2023-03-13T06:45:12.017Z,57.20
2023-03-13T06:50:16.943Z,58.30
2023-03-13T06:55:20.511Z,58.00
2023-03-13T07:00:24.951Z,57.70
2023-03-13T07:05:29.653Z,57.60
2023-03-13T07:10:33.487Z,57.60
2023-03-13T07:15:36.802Z,57.40
2023-03-13T07:20:41.637Z,57.40
2023-03-13T07:25:45.507Z,57.60
2023-03-13T07:30:49.485Z,57.40
2023-03-13T07:35:54.646Z,57.30
2023-03-13T07:40:59.554Z,57.40
2023-03-13T07:46:04.541Z,57.30
2023-03-13T07:51:13.068Z,57.80
2023-03-13T07:56:18.880Z,57.60
2023-03-13T08:01:26.035Z,57.40
2023-03-13T08:06:34.094Z,57.30
2023-03-13T08:11:40.480Z,57.30
2023-03-13T08:16:44.029Z,57.10
2023-03-13T08:21:49.186Z,57.10
2023-03-13T08:26:52.532Z,57.10
2023-03-13T08:31:55.915Z,57.00
2023-03-13T08:37:00.647Z,56.90
2023-03-13T08:42:03.966Z,56.80
2023-03-13T08:47:08.172Z,56.80
2023-03-13T08:52:13.305Z,56.60
2023-03-13T08:57:16.615Z,56.60
2023-03-13T09:02:21.117Z,56.60
2023-03-13T09:07:25.969Z,56.70
2023-03-13T09:12:31.494Z,56.50
2023-03-13T09:17:35.059Z,56.40
2023-03-13T09:22:39.864Z,56.30
2023-03-13T09:27:43.438Z,56.30
2023-03-13T09:32:46.917Z,56.20
2023-03-13T09:37:51.937Z,56.10
2023-03-13T09:42:58.901Z,55.80
2023-03-13T09:48:07.077Z,55.60
2023-03-13T09:53:16.496Z,55.30
2023-03-13T09:58:23.633Z,55.00
2023-03-13T10:03:31.653Z,55.10
2023-03-13T10:08:38.716Z,54.90
2023-03-13T10:13:48.284Z,54.40
2023-03-13T10:18:56.454Z,54.30
2023-03-13T10:24:06.413Z,53.90
2023-03-13T10:29:22.336Z,53.80
2023-03-13T10:34:27.323Z,53.30
2023-03-13T10:39:32.651Z,53.60
2023-03-13T10:44:36.051Z,53.40
2023-03-13T10:49:50.122Z,53.40
2023-03-13T10:55:02.218Z,52.70
2023-03-13T11:00:27.821Z,52.70
2023-03-13T11:05:34.311Z,52.90
2023-03-13T11:10:39.681Z,52.90
2023-03-13T11:15:51.111Z,52.80
2023-03-13T11:21:15.672Z,52.50
2023-03-13T11:26:32.317Z,52.80
2023-03-13T11:31:41.692Z,59.10
2023-03-13T11:36:54.184Z,54.60
2023-03-13T11:42:03.652Z,53.80
2023-03-13T11:47:28.676Z,53.20
2023-03-13T11:52:43.102Z,52.60
2023-03-13T11:58:00.385Z,52.60
2023-03-13T12:03:13.051Z,52.30
2023-03-13T12:08:21.563Z,52.30
2023-03-13T12:13:33.485Z,52.20
2023-03-13T12:18:39.576Z,52.10
2023-03-13T12:23:50.395Z,52.10
2023-03-13T12:29:07.623Z,51.90
2023-03-13T12:34:17.291Z,51.60
2023-03-13T12:39:30.001Z,51.90
2023-03-13T12:44:35.385Z,51.90
2023-03-13T12:50:04.478Z,51.70
2023-03-13T12:55:37.642Z,51.50
2023-03-13T13:00:45.957Z,51.20
2023-03-13T13:06:06.924Z,51.80
2023-03-13T13:11:48.687Z,51.20
2023-03-13T13:16:58.273Z,51.00
2023-03-13T13:22:39.537Z,51.30
2023-03-13T13:27:59.048Z,50.70
2023-03-13T13:33:38.219Z,50.90
2023-03-13T13:38:42.605Z,50.40
2023-03-13T13:43:47.519Z,50.90
2023-03-13T13:49:15.015Z,50.90
2023-03-13T13:54:33.968Z,50.10
2023-03-13T13:59:45.995Z,50.20
2023-03-13T14:04:57.346Z,50.20
2023-03-13T14:10:08.680Z,50.30
2023-03-13T14:15:17.456Z,50.10
2023-03-13T14:20:35.888Z,50.30
2023-03-13T14:25:45.633Z,49.90
2023-03-13T14:30:51.326Z,50.10
2023-03-13T14:35:57.826Z,50.40
2023-03-13T14:41:01.425Z,50.20
2023-03-13T14:46:16.003Z,50.10
2023-03-13T14:51:23.165Z,49.50
2023-03-13T14:56:36.866Z,50.20
2023-03-13T15:01:40.272Z,49.60
2023-03-13T15:06:45.116Z,49.90
2023-03-13T15:11:57.219Z,49.80
2023-03-13T15:17:00.676Z,49.50
2023-03-13T15:22:15.579Z,49.70
2023-03-13T15:27:24.034Z,49.40
2023-03-13T15:32:30.169Z,49.40
2023-03-13T15:37:36.673Z,49.60
2023-03-13T15:42:40.358Z,49.50
2023-03-13T15:47:43.697Z,49.50
2023-03-13T15:52:48.546Z,49.40
2023-03-13T15:57:52.206Z,49.30
2023-03-13T16:02:55.497Z,49.40
2023-03-13T16:08:00.300Z,49.40
2023-03-13T16:13:03.735Z,49.40
2023-03-13T16:18:07.757Z,49.50
2023-03-13T16:23:12.546Z,49.40
2023-03-13T16:28:16.277Z,49.20
2023-03-13T16:33:19.704Z,49.30
2023-03-13T16:38:25.234Z,49.30
2023-03-13T16:43:28.911Z,49.20
2023-03-13T16:48:33.359Z,49.30
2023-03-13T16:53:38.192Z,49.20
2023-03-13T16:58:41.576Z,49.10
2023-03-13T17:03:45.285Z,49.20
2023-03-13T17:08:50.123Z,49.30
2023-03-13T17:13:54.552Z,49.20
2023-03-13T17:18:59.543Z,49.20
2023-03-13T17:24:07.285Z,49.20
2023-03-13T17:29:18.581Z,49.30
2023-03-13T17:34:23.857Z,49.10
2023-03-13T17:39:34.592Z,49.20
2023-03-13T17:44:39.634Z,49.10
2023-03-13T17:49:43.472Z,49.30
2023-03-13T17:54:49.770Z,49.30
2023-03-13T17:59:54.219Z,49.30
2023-03-13T18:05:01.282Z,49.30
2023-03-13T18:10:16.480Z,49.40
2023-03-13T18:15:21.310Z,49.30
2023-03-13T18:20:27.095Z,49.40
2023-03-13T18:25:35.488Z,49.40
2023-03-13T18:30:41.788Z,49.50
2023-03-13T18:35:47.301Z,49.50
2023-03-13T18:40:54.287Z,49.60
2023-03-13T18:45:59.092Z,49.60
2023-03-13T18:51:05.193Z,49.80
2023-03-13T18:56:19.118Z,49.70
2023-03-13T19:01:28.267Z,49.70
2023-03-13T19:06:35.288Z,49.90
2023-03-13T19:11:42.378Z,49.90
2023-03-13T19:16:53.665Z,50.00
2023-03-13T19:22:02.241Z,50.10
2023-03-13T19:27:08.918Z,50.00
2023-03-13T19:32:16.051Z,50.10
2023-03-13T19:37:21.589Z,50.30
2023-03-13T19:42:29.067Z,50.20
2023-03-13T19:47:34.159Z,50.30
2023-03-13T19:52:40.919Z,50.30
2023-03-13T19:57:47.320Z,50.40
2023-03-13T20:02:55.791Z,50.40
2023-03-13T20:08:02.243Z,50.50
2023-03-13T20:13:09.118Z,50.50
2023-03-13T20:18:14.055Z,50.60
2023-03-13T20:23:22.361Z,50.60
2023-03-13T20:28:30.568Z,50.70
2023-03-13T20:33:36.164Z,50.80
2023-03-13T20:38:43.651Z,50.80
2023-03-13T20:43:53.403Z,51.60
2023-03-13T20:48:59.110Z,51.00
2023-03-13T20:54:05.176Z,51.00
2023-03-13T20:59:13.100Z,51.10
2023-03-13T21:04:17.873Z,51.30
2023-03-13T21:09:23.087Z,51.30
2023-03-13T21:14:29.308Z,51.50
2023-03-13T21:19:34.622Z,51.60
2023-03-13T21:24:38.737Z,51.60
2023-03-13T21:29:47.168Z,51.60
2023-03-13T21:34:50.821Z,51.70
2023-03-13T21:39:55.120Z,51.70
2023-03-13T21:45:00.167Z,51.90
2023-03-13T21:50:04.200Z,51.80
2023-03-13T21:55:09.928Z,52.40
2023-03-13T22:00:16.056Z,52.30
2023-03-13T22:05:20.761Z,52.20
2023-03-13T22:10:24.323Z,52.20
2023-03-13T22:15:28.994Z,52.30
2023-03-13T22:20:32.424Z,52.40
2023-03-13T22:25:35.698Z,52.40
2023-03-13T22:30:40.854Z,52.40
2023-03-13T22:35:45.280Z,52.60
2023-03-13T22:40:48.958Z,52.50
2023-03-13T22:45:53.968Z,52.80
2023-03-13T22:51:01.970Z,52.80
2023-03-13T22:56:05.924Z,53.10
2023-03-13T23:01:13.519Z,52.90
2023-03-13T23:06:19.239Z,53.30
2023-03-13T23:11:22.541Z,53.20
2023-03-13T23:16:27.597Z,53.30
2023-03-13T23:21:31.096Z,53.50
2023-03-13T23:26:34.391Z,53.40
2023-03-13T23:31:39.030Z,53.60
2023-03-13T23:36:42.285Z,53.80
2023-03-13T23:41:45.608Z,53.70
2023-03-13T23:46:50.616Z,53.80
2023-03-13T23:51:53.933Z,54.00
2023-03-13T23:56:57.247Z,54.00
